PWSweather.com
Personal Weather Stations
Station Observations
WD4JKH
Forsyth, GA 31029

Forsyth, GA 31029

Lat: 33.033225, Lon: -83.927995

Elevation: 709

Station Type: Davis Vantage VUE

High Low Average
Temperature 95.2°F35.1°C 72.5°F22.5°C 81.5°F27.5°C
Dew Point 77.8°F25.4°C 71.3°F21.8°C 74.3°F23.5°C
Winds 11.3 mph 18.2 kmh Calm Calm 2.0 mph S3.2 kmh S
Wind Gusts 19.0 mph30.6 kmh -- 6.0 mph9.7 kmh
Humidity 97% 48% 81%
Pressure 29.94 in1013.9 mb 29.82 in1009.8 mb -
Precipitation 0.40 in10.2 mm - -
Hour Temp Dew Point Humidity Winds Wind Gusts Pressure Precip Precip Rate Daily Precip Total
12:03 AM 80.1°F26.7°C 76.2°F24.6°C 88% 1.4 mph SW2.3 kmh SW 6.0 mph9.7 kmh 29.88 in1011.9 mb 0.00 in0.0 mm 0.00 in0.0 mm 0.00 in0.0 mm
12:08 AM 79.9°F26.6°C 76.4°F24.7°C 89% 1.8 mph SW2.9 kmh SW 5.0 mph8.0 kmh 29.88 in1011.9 mb 0.00 in0.0 mm 0.00 in0.0 mm 0.00 in0.0 mm
12:13 AM 79.8°F26.6°C 76.3°F24.6°C 89% Calm Calm 5.0 mph8.0 kmh 29.89 in1012.2 mb 0.00 in0.0 mm 0.00 in0.0 mm 0.00 in0.0 mm
12:18 AM 79.7°F26.5°C 76.2°F24.6°C 89% 1.1 mph SW1.8 kmh SW 4.0 mph6.4 kmh 29.89 in1012.2 mb 0.00 in0.0 mm 0.00 in0.0 mm 0.00 in0.0 mm
12:23 AM 79.6°F26.4°C 76.1°F24.5°C 89% 1.4 mph SW2.3 kmh SW 4.0 mph6.4 kmh 29.89 in1012.2 mb 0.00 in0.0 mm 0.00 in0.0 mm 0.00 in0.0 mm
12:28 AM 79.6°F26.4°C 76.4°F24.7°C 90% 1.0 mph SW1.6 kmh SW 3.0 mph4.8 kmh 29.89 in1012.2 mb 0.00 in0.0 mm 0.00 in0.0 mm 0.00 in0.0 mm
12:33 AM 79.5°F26.4°C 76.3°F24.6°C 90% 1.5 mph WSW2.4 kmh WSW 3.0 mph4.8 kmh 29.89 in1012.2 mb 0.00 in0.0 mm 0.00 in0.0 mm 0.00 in0.0 mm
12:38 AM 79.6°F26.4°C 76.4°F24.7°C 90% 1.7 mph WSW2.7 kmh WSW 4.0 mph6.4 kmh 29.89 in1012.2 mb 0.00 in0.0 mm 0.00 in0.0 mm 0.00 in0.0 mm
12:43 AM 79.7°F26.5°C 76.5°F24.7°C 90% 1.1 mph SW1.8 kmh SW 5.0 mph8.0 kmh 29.89 in1012.2 mb 0.00 in0.0 mm 0.00 in0.0 mm 0.00 in0.0 mm
12:48 AM 79.7°F26.5°C 76.5°F24.7°C 90% 1.0 mph SW1.6 kmh SW 5.0 mph8.0 kmh 29.89 in1012.2 mb 0.00 in0.0 mm 0.00 in0.0 mm 0.00 in0.0 mm
12:53 AM 79.6°F26.4°C 76.4°F24.7°C 90% 1.6 mph SW2.6 kmh SW 5.0 mph8.0 kmh 29.88 in1011.9 mb 0.00 in0.0 mm 0.00 in0.0 mm 0.00 in0.0 mm
12:58 AM 79.5°F26.4°C 76.3°F24.6°C 90% 1.0 mph SW1.6 kmh SW 5.0 mph8.0 kmh 29.88 in1011.9 mb 0.00 in0.0 mm 0.00 in0.0 mm 0.00 in0.0 mm
01:03 AM 79.4°F26.3°C 76.2°F24.6°C 90% 1.3 mph WSW2.1 kmh WSW 5.0 mph8.0 kmh 29.87 in1011.5 mb 0.00 in0.0 mm 0.00 in0.0 mm 0.00 in0.0 mm
01:08 AM 79.4°F26.3°C 76.2°F24.6°C 90% 1.8 mph SW2.9 kmh SW 5.0 mph8.0 kmh 29.87 in1011.5 mb 0.00 in0.0 mm 0.00 in0.0 mm 0.00 in0.0 mm
01:13 AM 79.2°F26.2°C 76.0°F24.4°C 90% 2.5 mph SSW4.0 kmh SSW 5.0 mph8.0 kmh 29.86 in1011.2 mb 0.00 in0.0 mm 0.00 in0.0 mm 0.00 in0.0 mm
01:18 AM 79.2°F26.2°C 76.3°F24.6°C 91% 1.2 mph SW1.9 kmh SW 5.0 mph8.0 kmh 29.87 in1011.5 mb 0.00 in0.0 mm 0.00 in0.0 mm 0.00 in0.0 mm
01:23 AM 79.1°F26.2°C 76.2°F24.6°C 91% 1.5 mph WSW2.4 kmh WSW 5.0 mph8.0 kmh 29.88 in1011.9 mb 0.00 in0.0 mm 0.00 in0.0 mm 0.00 in0.0 mm
01:28 AM 79.2°F26.2°C 76.3°F24.6°C 91% 2.9 mph NW4.7 kmh NW 8.0 mph12.9 kmh 29.89 in1012.2 mb 0.00 in0.0 mm 0.00 in0.0 mm 0.00 in0.0 mm
01:33 AM 79.6°F26.4°C 76.4°F24.7°C 90% 3.2 mph NW5.1 kmh NW 8.0 mph12.9 kmh 29.89 in1012.2 mb 0.00 in0.0 mm 0.00 in0.0 mm 0.00 in0.0 mm
01:38 AM 80.1°F26.7°C 76.2°F24.6°C 88% 2.4 mph NW3.9 kmh NW 8.0 mph12.9 kmh 29.90 in1012.5 mb 0.00 in0.0 mm 0.00 in0.0 mm 0.00 in0.0 mm
01:43 AM 80.6°F27.0°C 76.4°F24.7°C 87% 3.5 mph NNE5.6 kmh NNE 8.0 mph12.9 kmh 29.90 in1012.5 mb 0.00 in0.0 mm 0.00 in0.0 mm 0.00 in0.0 mm
01:48 AM 80.8°F27.1°C 76.6°F24.8°C 87% Calm Calm 8.0 mph12.9 kmh 29.90 in1012.5 mb 0.00 in0.0 mm 0.00 in0.0 mm 0.00 in0.0 mm
01:53 AM 80.8°F27.1°C 76.3°F24.6°C 86% 3.0 mph NE4.8 kmh NE 7.0 mph11.3 kmh 29.90 in1012.5 mb 0.00 in0.0 mm 0.00 in0.0 mm 0.00 in0.0 mm
01:58 AM 80.3°F26.8°C 75.4°F24.1°C 85% 5.1 mph N8.2 kmh N 9.0 mph14.5 kmh 29.91 in1012.9 mb 0.00 in0.0 mm 0.00 in0.0 mm 0.00 in0.0 mm
02:03 AM 79.7°F26.5°C 74.2°F23.4°C 83% 1.8 mph N2.9 kmh N 9.0 mph14.5 kmh 29.91 in1012.9 mb 0.00 in0.0 mm 0.00 in0.0 mm 0.00 in0.0 mm
02:08 AM 79.5°F26.4°C 74.3°F23.5°C 84% 2.4 mph N3.9 kmh N 9.0 mph14.5 kmh 29.91 in1012.9 mb 0.00 in0.0 mm 0.00 in0.0 mm 0.00 in0.0 mm
02:13 AM 79.3°F26.3°C 74.1°F23.4°C 84% 2.6 mph NNW4.2 kmh NNW 9.0 mph14.5 kmh 29.90 in1012.5 mb 0.00 in0.0 mm 0.00 in0.0 mm 0.00 in0.0 mm
02:18 AM 79.0°F26.1°C 74.2°F23.4°C 85% 2.7 mph N4.3 kmh N 8.0 mph12.9 kmh 29.90 in1012.5 mb 0.00 in0.0 mm 0.00 in0.0 mm 0.00 in0.0 mm
02:23 AM 78.7°F25.9°C 74.2°F23.4°C 86% 2.6 mph N4.2 kmh N 8.0 mph12.9 kmh 29.90 in1012.5 mb 0.00 in0.0 mm 0.00 in0.0 mm 0.00 in0.0 mm
02:28 AM 78.4°F25.8°C 73.9°F23.3°C 86% 1.5 mph N2.4 kmh N 8.0 mph12.9 kmh 29.90 in1012.5 mb 0.00 in0.0 mm 0.00 in0.0 mm 0.00 in0.0 mm
02:33 AM 78.2°F25.7°C 74.0°F23.3°C 87% 1.4 mph NNE2.3 kmh NNE 8.0 mph12.9 kmh 29.89 in1012.2 mb 0.00 in0.0 mm 0.00 in0.0 mm 0.00 in0.0 mm
02:38 AM 78.0°F25.6°C 74.2°F23.4°C 88% 1.0 mph NE1.6 kmh NE 8.0 mph12.9 kmh 29.89 in1012.2 mb 0.00 in0.0 mm 0.00 in0.0 mm 0.00 in0.0 mm
02:43 AM 77.9°F25.5°C 74.1°F23.4°C 88% 1.0 mph N1.6 kmh N 5.0 mph8.0 kmh 29.89 in1012.2 mb 0.00 in0.0 mm 0.00 in0.0 mm 0.00 in0.0 mm
02:48 AM 77.8°F25.4°C 74.0°F23.3°C 88% Calm Calm 5.0 mph8.0 kmh 29.89 in1012.2 mb 0.00 in0.0 mm 0.00 in0.0 mm 0.00 in0.0 mm
02:53 AM 77.7°F25.4°C 74.2°F23.4°C 89% 1.2 mph E1.9 kmh E 2.0 mph3.2 kmh 29.89 in1012.2 mb 0.00 in0.0 mm 0.00 in0.0 mm 0.00 in0.0 mm
02:58 AM 77.7°F25.4°C 74.2°F23.4°C 89% Calm Calm 2.0 mph3.2 kmh 29.89 in1012.2 mb 0.00 in0.0 mm 0.00 in0.0 mm 0.00 in0.0 mm
03:03 AM 77.5°F25.3°C 74.0°F23.3°C 89% Calm Calm 2.0 mph3.2 kmh 29.90 in1012.5 mb 0.00 in0.0 mm 0.00 in0.0 mm 0.00 in0.0 mm
03:08 AM 77.5°F25.3°C 74.0°F23.3°C 89% 1.0 mph W1.6 kmh W 2.0 mph3.2 kmh 29.91 in1012.9 mb 0.00 in0.0 mm 0.00 in0.0 mm 0.00 in0.0 mm
03:13 AM 77.4°F25.2°C 74.2°F23.4°C 90% 1.9 mph WNW3.1 kmh WNW 3.0 mph4.8 kmh 29.91 in1012.9 mb 0.00 in0.0 mm 0.00 in0.0 mm 0.00 in0.0 mm
03:18 AM 77.1°F25.1°C 74.3°F23.5°C 91% 1.0 mph W1.6 kmh W 3.0 mph4.8 kmh 29.91 in1012.9 mb 0.00 in0.0 mm 0.00 in0.0 mm 0.00 in0.0 mm
03:23 AM 76.9°F24.9°C 74.1°F23.4°C 91% Calm Calm 3.0 mph4.8 kmh 29.91 in1012.9 mb 0.00 in0.0 mm 0.00 in0.0 mm 0.00 in0.0 mm
03:28 AM 76.7°F24.8°C 74.2°F23.4°C 92% 1.0 mph W1.6 kmh W 3.0 mph4.8 kmh 29.91 in1012.9 mb 0.00 in0.0 mm 0.00 in0.0 mm 0.00 in0.0 mm
03:33 AM 76.6°F24.8°C 74.1°F23.4°C 92% Calm Calm 3.0 mph4.8 kmh 29.91 in1012.9 mb 0.00 in0.0 mm 0.00 in0.0 mm 0.00 in0.0 mm
03:38 AM 76.5°F24.7°C 74.3°F23.5°C 93% Calm Calm 1.0 mph1.6 kmh 29.91 in1012.9 mb 0.00 in0.0 mm 0.00 in0.0 mm 0.00 in0.0 mm
03:43 AM 76.3°F24.6°C 74.1°F23.4°C 93% Calm Calm 1.0 mph1.6 kmh 29.91 in1012.9 mb 0.00 in0.0 mm 0.00 in0.0 mm 0.00 in0.0 mm
03:48 AM 76.2°F24.6°C 74.0°F23.3°C 93% Calm Calm -- 29.91 in1012.9 mb 0.00 in0.0 mm 0.00 in0.0 mm 0.00 in0.0 mm
03:53 AM 76.1°F24.5°C 74.2°F23.4°C 94% 1.0 mph WSW1.6 kmh WSW 1.0 mph1.6 kmh 29.91 in1012.9 mb 0.00 in0.0 mm 0.00 in0.0 mm 0.00 in0.0 mm
03:58 AM 75.8°F24.3°C 73.9°F23.3°C 94% 1.2 mph WSW1.9 kmh WSW 2.0 mph3.2 kmh 29.91 in1012.9 mb 0.00 in0.0 mm 0.00 in0.0 mm 0.00 in0.0 mm
04:03 AM 75.6°F24.2°C 73.7°F23.2°C 94% 2.1 mph W3.4 kmh W 5.0 mph8.0 kmh 29.92 in1013.2 mb 0.01 in0.3 mm 0.01 in0.3 mm 0.01 in0.3 mm
04:08 AM 75.4°F24.1°C 73.6°F23.1°C 94% 1.3 mph WSW2.1 kmh WSW 5.0 mph8.0 kmh 29.92 in1013.2 mb 0.01 in0.3 mm 0.00 in0.0 mm 0.01 in0.3 mm
04:13 AM 75.3°F24.1°C 73.5°F23.1°C 94% Calm Calm 5.0 mph8.0 kmh 29.92 in1013.2 mb 0.01 in0.3 mm 0.00 in0.0 mm 0.01 in0.3 mm
04:18 AM 75.2°F24.0°C 73.3°F22.9°C 94% Calm Calm 5.0 mph8.0 kmh 29.92 in1013.2 mb 0.01 in0.3 mm 0.00 in0.0 mm 0.01 in0.3 mm
04:23 AM 75.0°F23.9°C 73.1°F22.8°C 94% Calm Calm 2.0 mph3.2 kmh 29.91 in1012.9 mb 0.01 in0.3 mm 0.00 in0.0 mm 0.01 in0.3 mm
04:28 AM 74.8°F23.8°C 72.9°F22.7°C 94% Calm Calm 1.0 mph1.6 kmh 29.91 in1012.9 mb 0.02 in0.5 mm 0.12 in3.0 mm 0.02 in0.5 mm
04:33 AM 74.7°F23.7°C 72.8°F22.7°C 94% Calm Calm 1.0 mph1.6 kmh 29.91 in1012.9 mb 0.02 in0.5 mm 0.00 in0.0 mm 0.02 in0.5 mm
04:38 AM 74.6°F23.7°C 72.7°F22.6°C 94% 1.0 mph SE1.6 kmh SE 1.0 mph1.6 kmh 29.91 in1012.9 mb 0.02 in0.5 mm 0.00 in0.0 mm 0.02 in0.5 mm
04:43 AM 74.4°F23.6°C 72.5°F22.5°C 94% Calm Calm 1.0 mph1.6 kmh 29.91 in1012.9 mb 0.03 in0.8 mm 0.12 in3.0 mm 0.03 in0.8 mm
04:48 AM 74.3°F23.5°C 72.5°F22.5°C 94% 1.0 mph WSW1.6 kmh WSW 1.0 mph1.6 kmh 29.91 in1012.9 mb 0.04 in1.0 mm 0.12 in3.0 mm 0.04 in1.0 mm
04:53 AM 74.2°F23.4°C 72.3°F22.4°C 94% 1.0 mph WSW1.6 kmh WSW 1.0 mph1.6 kmh 29.91 in1012.9 mb 0.05 in1.3 mm 0.12 in3.0 mm 0.05 in1.3 mm
04:58 AM 74.1°F23.4°C 72.2°F22.3°C 94% 1.1 mph W1.8 kmh W 2.0 mph3.2 kmh 29.91 in1012.9 mb 0.06 in1.5 mm 0.12 in3.0 mm 0.06 in1.5 mm
05:03 AM 73.9°F23.3°C 72.1°F22.3°C 94% 1.0 mph WNW1.6 kmh WNW 2.0 mph3.2 kmh 29.91 in1012.9 mb 0.05 in1.3 mm 0.00 in0.0 mm 0.06 in1.5 mm
05:08 AM 73.7°F23.2°C 71.8°F22.1°C 94% 1.0 mph NW1.6 kmh NW 2.0 mph3.2 kmh 29.90 in1012.5 mb 0.06 in1.5 mm 0.12 in3.0 mm 0.07 in1.8 mm
05:13 AM 73.5°F23.1°C 71.6°F22.0°C 94% 1.9 mph NNE3.1 kmh NNE 3.0 mph4.8 kmh 29.89 in1012.2 mb 0.06 in1.5 mm 0.00 in0.0 mm 0.07 in1.8 mm
05:18 AM 73.5°F23.1°C 71.6°F22.0°C 94% Calm Calm 3.0 mph4.8 kmh 29.89 in1012.2 mb 0.07 in1.8 mm 0.12 in3.0 mm 0.08 in2.0 mm
05:23 AM 73.3°F22.9°C 71.5°F21.9°C 94% Calm Calm 3.0 mph4.8 kmh 29.89 in1012.2 mb 0.08 in2.0 mm 0.12 in3.0 mm 0.09 in2.3 mm
05:28 AM 73.2°F22.9°C 71.3°F21.8°C 94% Calm Calm 3.0 mph4.8 kmh 29.89 in1012.2 mb 0.08 in2.0 mm 0.00 in0.0 mm 0.10 in2.5 mm
05:33 AM 73.1°F22.8°C 71.6°F22.0°C 95% 2.1 mph NE3.4 kmh NE 3.0 mph4.8 kmh 29.88 in1011.9 mb 0.09 in2.3 mm 0.12 in3.0 mm 0.11 in2.8 mm
05:38 AM 73.0°F22.8°C 71.5°F21.9°C 95% 1.4 mph NE2.3 kmh NE 4.0 mph6.4 kmh 29.87 in1011.5 mb 0.10 in2.5 mm 0.12 in3.0 mm 0.12 in3.0 mm
05:42 AM 72.9°F22.7°C 71.4°F21.9°C 95% 2.3 mph ENE3.7 kmh ENE 4.0 mph6.4 kmh 29.85 in1010.8 mb 0.09 in2.3 mm 0.00 in0.0 mm 0.12 in3.0 mm
05:47 AM 72.9°F22.7°C 71.7°F22.1°C 96% 4.2 mph NE6.8 kmh NE 10.0 mph16.1 kmh 29.85 in1010.8 mb 0.09 in2.3 mm 0.00 in0.0 mm 0.13 in3.3 mm
05:52 AM 73.0°F22.8°C 71.8°F22.1°C 96% 1.5 mph NE2.4 kmh NE 10.0 mph16.1 kmh 29.87 in1011.5 mb 0.08 in2.0 mm 0.00 in0.0 mm 0.13 in3.3 mm
05:57 AM 73.0°F22.8°C 71.8°F22.1°C 96% 1.0 mph NW1.6 kmh NW 10.0 mph16.1 kmh 29.88 in1011.9 mb 0.08 in2.0 mm 0.00 in0.0 mm 0.13 in3.3 mm
06:02 AM 73.0°F22.8°C 71.8°F22.1°C 96% Calm Calm 10.0 mph16.1 kmh 29.88 in1011.9 mb 0.07 in1.8 mm 0.00 in0.0 mm 0.13 in3.3 mm
06:07 AM 72.9°F22.7°C 71.7°F22.1°C 96% 1.0 mph SW1.6 kmh SW 4.0 mph6.4 kmh 29.89 in1012.2 mb 0.06 in1.5 mm 0.00 in0.0 mm 0.13 in3.3 mm
06:12 AM 72.8°F22.7°C 71.6°F22.0°C 96% 1.7 mph SW2.7 kmh SW 4.0 mph6.4 kmh 29.90 in1012.5 mb 0.06 in1.5 mm 0.00 in0.0 mm 0.13 in3.3 mm
06:17 AM 72.7°F22.6°C 71.5°F21.9°C 96% Calm Calm 5.0 mph8.0 kmh 29.90 in1012.5 mb 0.05 in1.3 mm 0.00 in0.0 mm 0.13 in3.3 mm
06:22 AM 72.7°F22.6°C 71.5°F21.9°C 96% 1.6 mph SSW2.6 kmh SSW 5.0 mph8.0 kmh 29.90 in1012.5 mb 0.04 in1.0 mm 0.00 in0.0 mm 0.13 in3.3 mm
06:27 AM 72.6°F22.6°C 71.4°F21.9°C 96% 1.2 mph SW1.9 kmh SW 5.0 mph8.0 kmh 29.90 in1012.5 mb 0.03 in0.8 mm 0.00 in0.0 mm 0.13 in3.3 mm
06:32 AM 72.5°F22.5°C 71.6°F22.0°C 97% 1.3 mph SW2.1 kmh SW 4.0 mph6.4 kmh 29.90 in1012.5 mb 0.02 in0.5 mm 0.00 in0.0 mm 0.13 in3.3 mm
06:37 AM 72.5°F22.5°C 71.6°F22.0°C 97% Calm Calm 4.0 mph6.4 kmh 29.89 in1012.2 mb 0.01 in0.3 mm 0.00 in0.0 mm 0.13 in3.3 mm
06:42 AM 72.5°F22.5°C 71.6°F22.0°C 97% 1.0 mph SW1.6 kmh SW 3.0 mph4.8 kmh 29.89 in1012.2 mb 0.01 in0.3 mm 0.00 in0.0 mm 0.13 in3.3 mm
06:47 AM 72.5°F22.5°C 71.6°F22.0°C 97% Calm Calm 3.0 mph4.8 kmh 29.90 in1012.5 mb 0.00 in0.0 mm 0.00 in0.0 mm 0.13 in3.3 mm
06:52 AM 72.6°F22.6°C 71.7°F22.1°C 97% Calm Calm 3.0 mph4.8 kmh 29.90 in1012.5 mb 0.00 in0.0 mm 0.00 in0.0 mm 0.13 in3.3 mm
06:57 AM 72.7°F22.6°C 71.8°F22.1°C 97% Calm Calm 1.0 mph1.6 kmh 29.89 in1012.2 mb 0.00 in0.0 mm 0.00 in0.0 mm 0.13 in3.3 mm
07:02 AM 72.8°F22.7°C 71.9°F22.2°C 97% 1.5 mph ENE2.4 kmh ENE 2.0 mph3.2 kmh 29.89 in1012.2 mb 0.00 in0.0 mm 0.00 in0.0 mm 0.13 in3.3 mm
07:07 AM 73.0°F22.8°C 72.1°F22.3°C 97% 1.0 mph WNW1.6 kmh WNW 2.0 mph3.2 kmh 29.89 in1012.2 mb 0.00 in0.0 mm 0.00 in0.0 mm 0.13 in3.3 mm
07:12 AM 73.1°F22.8°C 72.2°F22.3°C 97% 1.0 mph WNW1.6 kmh WNW 2.0 mph3.2 kmh 29.90 in1012.5 mb 0.00 in0.0 mm 0.00 in0.0 mm 0.13 in3.3 mm
07:17 AM 73.2°F22.9°C 72.3°F22.4°C 97% 1.4 mph WNW2.3 kmh WNW 3.0 mph4.8 kmh 29.89 in1012.2 mb 0.00 in0.0 mm 0.00 in0.0 mm 0.13 in3.3 mm
07:22 AM 73.4°F23.0°C 72.5°F22.5°C 97% 1.0 mph W1.6 kmh W 3.0 mph4.8 kmh 29.89 in1012.2 mb 0.00 in0.0 mm 0.00 in0.0 mm 0.13 in3.3 mm
07:27 AM 73.5°F23.1°C 72.6°F22.6°C 97% Calm Calm 3.0 mph4.8 kmh 29.89 in1012.2 mb 0.00 in0.0 mm 0.00 in0.0 mm 0.13 in3.3 mm
07:32 AM 73.7°F23.2°C 72.8°F22.7°C 97% Calm Calm 3.0 mph4.8 kmh 29.89 in1012.2 mb 0.00 in0.0 mm 0.00 in0.0 mm 0.13 in3.3 mm
07:37 AM 73.8°F23.2°C 72.9°F22.7°C 97% Calm Calm 1.0 mph1.6 kmh 29.89 in1012.2 mb 0.00 in0.0 mm 0.00 in0.0 mm 0.13 in3.3 mm
07:42 AM 73.8°F23.2°C 72.9°F22.7°C 97% Calm Calm 1.0 mph1.6 kmh 29.90 in1012.5 mb 0.00 in0.0 mm 0.00 in0.0 mm 0.13 in3.3 mm
07:47 AM 73.7°F23.2°C 72.8°F22.7°C 97% 1.0 mph SW1.6 kmh SW 1.0 mph1.6 kmh 29.89 in1012.2 mb 0.00 in0.0 mm 0.00 in0.0 mm 0.13 in3.3 mm
07:52 AM 73.8°F23.2°C 72.9°F22.7°C 97% 1.3 mph SW2.1 kmh SW 2.0 mph3.2 kmh 29.90 in1012.5 mb 0.00 in0.0 mm 0.00 in0.0 mm 0.13 in3.3 mm
07:57 AM 73.9°F23.3°C 73.0°F22.8°C 97% 1.4 mph SW2.3 kmh SW 3.0 mph4.8 kmh 29.90 in1012.5 mb 0.00 in0.0 mm 0.00 in0.0 mm 0.13 in3.3 mm
08:02 AM 74.0°F23.3°C 73.1°F22.8°C 97% 1.6 mph SW2.6 kmh SW 3.0 mph4.8 kmh 29.90 in1012.5 mb 0.00 in0.0 mm 0.00 in0.0 mm 0.13 in3.3 mm
08:07 AM 74.1°F23.4°C 73.2°F22.9°C 97% Calm Calm 4.0 mph6.4 kmh 29.90 in1012.5 mb 0.00 in0.0 mm 0.00 in0.0 mm 0.13 in3.3 mm
08:12 AM 74.2°F23.4°C 73.3°F22.9°C 97% 1.1 mph SW1.8 kmh SW 4.0 mph6.4 kmh 29.90 in1012.5 mb 0.00 in0.0 mm 0.00 in0.0 mm 0.13 in3.3 mm
08:17 AM 74.2°F23.4°C 73.0°F22.8°C 96% 1.0 mph SW1.6 kmh SW 4.0 mph6.4 kmh 29.90 in1012.5 mb 0.00 in0.0 mm 0.00 in0.0 mm 0.13 in3.3 mm
08:22 AM 74.4°F23.6°C 73.2°F22.9°C 96% 1.0 mph SW1.6 kmh SW 4.0 mph6.4 kmh 29.90 in1012.5 mb 0.00 in0.0 mm 0.00 in0.0 mm 0.13 in3.3 mm
08:27 AM 75.2°F24.0°C 74.3°F23.5°C 97% Calm Calm 2.0 mph3.2 kmh 29.90 in1012.5 mb 0.00 in0.0 mm 0.00 in0.0 mm 0.13 in3.3 mm
08:32 AM 75.9°F24.4°C 75.0°F23.9°C 97% 1.0 mph SW1.6 kmh SW 1.0 mph1.6 kmh 29.90 in1012.5 mb 0.00 in0.0 mm 0.00 in0.0 mm 0.13 in3.3 mm
08:37 AM 76.3°F24.6°C 74.7°F23.7°C 95% Calm Calm 1.0 mph1.6 kmh 29.90 in1012.5 mb 0.00 in0.0 mm 0.00 in0.0 mm 0.13 in3.3 mm
08:42 AM 77.0°F25.0°C 75.1°F23.9°C 94% Calm Calm 1.0 mph1.6 kmh 29.90 in1012.5 mb 0.00 in0.0 mm 0.00 in0.0 mm 0.13 in3.3 mm
08:47 AM 78.4°F25.8°C 76.2°F24.6°C 93% Calm Calm 1.0 mph1.6 kmh 29.90 in1012.5 mb 0.00 in0.0 mm 0.00 in0.0 mm 0.13 in3.3 mm
08:52 AM 79.4°F26.3°C 76.2°F24.6°C 90% Calm Calm 1.0 mph1.6 kmh 29.90 in1012.5 mb 0.00 in0.0 mm 0.00 in0.0 mm 0.13 in3.3 mm
08:57 AM 80.0°F26.7°C 76.1°F24.5°C 88% Calm Calm 1.0 mph1.6 kmh 29.90 in1012.5 mb 0.00 in0.0 mm 0.00 in0.0 mm 0.13 in3.3 mm
09:02 AM 80.6°F27.0°C 76.0°F24.4°C 86% Calm Calm 1.0 mph1.6 kmh 29.90 in1012.5 mb 0.00 in0.0 mm 0.00 in0.0 mm 0.13 in3.3 mm
09:07 AM 81.0°F27.2°C 75.4°F24.1°C 83% Calm Calm 1.0 mph1.6 kmh 29.90 in1012.5 mb 0.00 in0.0 mm 0.00 in0.0 mm 0.13 in3.3 mm
09:12 AM 80.9°F27.2°C 75.3°F24.1°C 83% 1.0 mph ESE1.6 kmh ESE 1.0 mph1.6 kmh 29.90 in1012.5 mb 0.00 in0.0 mm 0.00 in0.0 mm 0.13 in3.3 mm
09:17 AM 81.5°F27.5°C 75.9°F24.4°C 83% Calm Calm 1.0 mph1.6 kmh 29.90 in1012.5 mb 0.00 in0.0 mm 0.00 in0.0 mm 0.13 in3.3 mm
09:22 AM 82.0°F27.8°C 76.1°F24.5°C 82% Calm Calm 1.0 mph1.6 kmh 29.91 in1012.9 mb 0.00 in0.0 mm 0.00 in0.0 mm 0.13 in3.3 mm
09:27 AM 82.1°F27.8°C 76.2°F24.6°C 82% 1.0 mph W1.6 kmh W 1.0 mph1.6 kmh 29.90 in1012.5 mb 0.00 in0.0 mm 0.00 in0.0 mm 0.13 in3.3 mm
09:32 AM 82.0°F27.8°C 75.6°F24.2°C 81% Calm Calm 1.0 mph1.6 kmh 29.91 in1012.9 mb 0.00 in0.0 mm 0.00 in0.0 mm 0.13 in3.3 mm
09:37 AM 82.2°F27.9°C 75.0°F23.9°C 79% Calm Calm 1.0 mph1.6 kmh 29.91 in1012.9 mb 0.00 in0.0 mm 0.00 in0.0 mm 0.13 in3.3 mm
09:42 AM 82.6°F28.1°C 76.3°F24.6°C 81% 1.0 mph ENE1.6 kmh ENE 1.0 mph1.6 kmh 29.91 in1012.9 mb 0.00 in0.0 mm 0.00 in0.0 mm 0.13 in3.3 mm
09:47 AM 82.6°F28.1°C 75.9°F24.4°C 80% 1.9 mph NE3.1 kmh NE 4.0 mph6.4 kmh 29.91 in1012.9 mb 0.00 in0.0 mm 0.00 in0.0 mm 0.13 in3.3 mm
09:52 AM 82.5°F28.1°C 76.2°F24.6°C 81% Calm Calm 4.0 mph6.4 kmh 29.91 in1012.9 mb 0.00 in0.0 mm 0.00 in0.0 mm 0.13 in3.3 mm
09:57 AM 83.2°F28.4°C 75.8°F24.3°C 78% Calm Calm 4.0 mph6.4 kmh 29.91 in1012.9 mb 0.00 in0.0 mm 0.00 in0.0 mm 0.13 in3.3 mm
10:02 AM 83.3°F28.5°C 76.5°F24.7°C 80% 1.0 mph NNW1.6 kmh NNW 4.0 mph6.4 kmh 29.91 in1012.9 mb 0.00 in0.0 mm 0.00 in0.0 mm 0.13 in3.3 mm
10:07 AM 83.5°F28.6°C 76.4°F24.7°C 79% 1.0 mph NE1.6 kmh NE 1.0 mph1.6 kmh 29.92 in1013.2 mb 0.00 in0.0 mm 0.00 in0.0 mm 0.13 in3.3 mm
10:12 AM 83.7°F28.7°C 76.1°F24.5°C 78% 1.3 mph NW2.1 kmh NW 2.0 mph3.2 kmh 29.92 in1013.2 mb 0.00 in0.0 mm 0.00 in0.0 mm 0.13 in3.3 mm
10:17 AM 83.8°F28.8°C 76.0°F24.4°C 77% 1.0 mph N1.6 kmh N 2.0 mph3.2 kmh 29.91 in1012.9 mb 0.00 in0.0 mm 0.00 in0.0 mm 0.13 in3.3 mm
10:22 AM 83.9°F28.8°C 75.3°F24.1°C 75% Calm Calm 2.0 mph3.2 kmh 29.92 in1013.2 mb 0.00 in0.0 mm 0.00 in0.0 mm 0.13 in3.3 mm
10:27 AM 84.2°F29.0°C 75.2°F24.0°C 74% 1.4 mph NNE2.3 kmh NNE 2.0 mph3.2 kmh 29.92 in1013.2 mb 0.00 in0.0 mm 0.00 in0.0 mm 0.13 in3.3 mm
10:32 AM 84.8°F29.3°C 76.2°F24.6°C 75% 1.0 mph NE1.6 kmh NE 2.0 mph3.2 kmh 29.91 in1012.9 mb 0.00 in0.0 mm 0.00 in0.0 mm 0.13 in3.3 mm
10:37 AM 84.7°F29.3°C 75.3°F24.1°C 73% 1.0 mph ENE1.6 kmh ENE 4.0 mph6.4 kmh 29.92 in1013.2 mb 0.00 in0.0 mm 0.00 in0.0 mm 0.13 in3.3 mm
10:42 AM 84.6°F29.2°C 75.4°F24.1°C 74% 1.0 mph NNE1.6 kmh NNE 4.0 mph6.4 kmh 29.92 in1013.2 mb 0.00 in0.0 mm 0.00 in0.0 mm 0.13 in3.3 mm
10:47 AM 84.8°F29.3°C 75.4°F24.1°C 73% 1.7 mph ENE2.7 kmh ENE 4.0 mph6.4 kmh 29.92 in1013.2 mb 0.00 in0.0 mm 0.00 in0.0 mm 0.13 in3.3 mm
10:52 AM 85.1°F29.5°C 75.3°F24.1°C 72% 2.5 mph NW4.0 kmh NW 4.0 mph6.4 kmh 29.92 in1013.2 mb 0.00 in0.0 mm 0.00 in0.0 mm 0.13 in3.3 mm
10:57 AM 85.7°F29.8°C 76.0°F24.4°C 73% 1.2 mph NNE1.9 kmh NNE 4.0 mph6.4 kmh 29.92 in1013.2 mb 0.00 in0.0 mm 0.00 in0.0 mm 0.13 in3.3 mm
11:02 AM 86.0°F30.0°C 76.6°F24.8°C 73% 2.0 mph NW3.2 kmh NW 4.0 mph6.4 kmh 29.91 in1012.9 mb 0.00 in0.0 mm 0.00 in0.0 mm 0.13 in3.3 mm
11:07 AM 86.3°F30.2°C 76.9°F24.9°C 73% 1.5 mph N2.4 kmh N 4.0 mph6.4 kmh 29.91 in1012.9 mb 0.00 in0.0 mm 0.00 in0.0 mm 0.13 in3.3 mm
11:12 AM 86.2°F30.1°C 76.3°F24.6°C 72% 2.4 mph NE3.9 kmh NE 6.0 mph9.7 kmh 29.91 in1012.9 mb 0.00 in0.0 mm 0.00 in0.0 mm 0.13 in3.3 mm
11:17 AM 86.0°F30.0°C 76.7°F24.8°C 74% 1.7 mph E2.7 kmh E 6.0 mph9.7 kmh 29.91 in1012.9 mb 0.00 in0.0 mm 0.00 in0.0 mm 0.13 in3.3 mm
11:22 AM 86.2°F30.1°C 76.8°F24.9°C 73% Calm Calm 6.0 mph9.7 kmh 29.91 in1012.9 mb 0.00 in0.0 mm 0.00 in0.0 mm 0.13 in3.3 mm
11:27 AM 86.4°F30.2°C 76.1°F24.5°C 71% 2.9 mph WNW4.7 kmh WNW 6.0 mph9.7 kmh 29.91 in1012.9 mb 0.00 in0.0 mm 0.00 in0.0 mm 0.13 in3.3 mm
11:32 AM 86.5°F30.3°C 76.2°F24.6°C 71% 1.6 mph WSW2.6 kmh WSW 5.0 mph8.0 kmh 29.91 in1012.9 mb 0.00 in0.0 mm 0.00 in0.0 mm 0.13 in3.3 mm
11:37 AM 87.6°F30.9°C 77.3°F25.2°C 71% 1.0 mph NNE1.6 kmh NNE 5.0 mph8.0 kmh 29.91 in1012.9 mb 0.00 in0.0 mm 0.00 in0.0 mm 0.13 in3.3 mm
11:41 AM 87.6°F30.9°C 77.0°F25.0°C 71% 2.4 mph ENE3.9 kmh ENE 6.0 mph9.7 kmh 29.91 in1012.9 mb 0.00 in0.0 mm 0.00 in0.0 mm 0.13 in3.3 mm
11:46 AM 87.9°F31.1°C 77.2°F25.1°C 70% 2.1 mph NW3.4 kmh NW 6.0 mph9.7 kmh 29.92 in1013.2 mb 0.00 in0.0 mm 0.00 in0.0 mm 0.13 in3.3 mm
11:51 AM 87.7°F30.9°C 77.1°F25.1°C 71% 1.5 mph W2.4 kmh W 6.0 mph9.7 kmh 29.92 in1013.2 mb 0.00 in0.0 mm 0.00 in0.0 mm 0.13 in3.3 mm
11:56 AM 87.6°F30.9°C 76.4°F24.7°C 69% 1.1 mph WSW1.8 kmh WSW 6.0 mph9.7 kmh 29.91 in1012.9 mb 0.00 in0.0 mm 0.00 in0.0 mm 0.13 in3.3 mm
12:01 PM 88.2°F31.2°C 77.4°F25.2°C 70% 1.0 mph SE1.6 kmh SE 6.0 mph9.7 kmh 29.91 in1012.9 mb 0.00 in0.0 mm 0.00 in0.0 mm 0.13 in3.3 mm
12:06 PM 88.9°F31.6°C 76.8°F24.9°C 67% 2.8 mph NE4.5 kmh NE 6.0 mph9.7 kmh 29.91 in1012.9 mb 0.00 in0.0 mm 0.00 in0.0 mm 0.13 in3.3 mm
12:11 PM 88.4°F31.3°C 76.5°F24.7°C 68% 2.7 mph NNE4.3 kmh NNE 6.0 mph9.7 kmh 29.91 in1012.9 mb 0.00 in0.0 mm 0.00 in0.0 mm 0.13 in3.3 mm
12:16 PM 88.1°F31.2°C 76.9°F24.9°C 69% 1.7 mph NW2.7 kmh NW 6.0 mph9.7 kmh 29.91 in1012.9 mb 0.00 in0.0 mm 0.00 in0.0 mm 0.13 in3.3 mm
12:21 PM 88.2°F31.2°C 76.7°F24.8°C 69% 1.0 mph W1.6 kmh W 6.0 mph9.7 kmh 29.91 in1012.9 mb 0.00 in0.0 mm 0.00 in0.0 mm 0.13 in3.3 mm
12:26 PM 88.8°F31.6°C 77.2°F25.1°C 68% 2.7 mph N4.3 kmh N 5.0 mph8.0 kmh 29.91 in1012.9 mb 0.00 in0.0 mm 0.00 in0.0 mm 0.13 in3.3 mm
12:31 PM 88.6°F31.4°C 76.2°F24.6°C 67% 1.9 mph NE3.1 kmh NE 6.0 mph9.7 kmh 29.91 in1012.9 mb 0.00 in0.0 mm 0.00 in0.0 mm 0.13 in3.3 mm
12:36 PM 88.6°F31.4°C 76.5°F24.7°C 67% 2.1 mph WNW3.4 kmh WNW 6.0 mph9.7 kmh 29.91 in1012.9 mb 0.00 in0.0 mm 0.00 in0.0 mm 0.13 in3.3 mm
12:41 PM 89.1°F31.7°C 75.6°F24.2°C 64% 1.7 mph WSW2.7 kmh WSW 6.0 mph9.7 kmh 29.90 in1012.5 mb 0.00 in0.0 mm 0.00 in0.0 mm 0.13 in3.3 mm
12:46 PM 89.9°F32.2°C 77.8°F25.4°C 67% 1.4 mph NW2.3 kmh NW 6.0 mph9.7 kmh 29.90 in1012.5 mb 0.00 in0.0 mm 0.00 in0.0 mm 0.13 in3.3 mm
12:51 PM 90.6°F32.6°C 75.6°F24.2°C 61% 3.3 mph WNW5.3 kmh WNW 6.0 mph9.7 kmh 29.90 in1012.5 mb 0.00 in0.0 mm 0.00 in0.0 mm 0.13 in3.3 mm
12:56 PM 90.4°F32.4°C 74.6°F23.7°C 60% 1.0 mph NW1.6 kmh NW 6.0 mph9.7 kmh 29.90 in1012.5 mb 0.00 in0.0 mm 0.00 in0.0 mm 0.13 in3.3 mm
01:01 PM 90.3°F32.4°C 75.3°F24.1°C 61% 2.7 mph NNW4.3 kmh NNW 6.0 mph9.7 kmh 29.90 in1012.5 mb 0.00 in0.0 mm 0.00 in0.0 mm 0.13 in3.3 mm
01:06 PM 89.9°F32.2°C 76.4°F24.7°C 64% 2.3 mph NE3.7 kmh NE 6.0 mph9.7 kmh 29.89 in1012.2 mb 0.00 in0.0 mm 0.00 in0.0 mm 0.13 in3.3 mm
01:11 PM 90.3°F32.4°C 77.2°F25.1°C 65% 2.2 mph NNW3.5 kmh NNW 6.0 mph9.7 kmh 29.89 in1012.2 mb 0.00 in0.0 mm 0.00 in0.0 mm 0.13 in3.3 mm
01:16 PM 90.3°F32.4°C 75.8°F24.3°C 62% 2.9 mph NE4.7 kmh NE 6.0 mph9.7 kmh 29.88 in1011.9 mb 0.00 in0.0 mm 0.00 in0.0 mm 0.13 in3.3 mm
01:21 PM 90.0°F32.2°C 76.0°F24.4°C 63% 3.1 mph E5.0 kmh E 6.0 mph9.7 kmh 29.88 in1011.9 mb 0.00 in0.0 mm 0.00 in0.0 mm 0.13 in3.3 mm
01:26 PM 90.1°F32.3°C 75.6°F24.2°C 62% 1.7 mph ENE2.7 kmh ENE 5.0 mph8.0 kmh 29.88 in1011.9 mb 0.00 in0.0 mm 0.00 in0.0 mm 0.13 in3.3 mm
01:31 PM 90.7°F32.6°C 75.4°F24.1°C 61% 2.5 mph NW4.0 kmh NW 5.0 mph8.0 kmh 29.87 in1011.5 mb 0.00 in0.0 mm 0.00 in0.0 mm 0.13 in3.3 mm
01:36 PM 90.8°F32.7°C 76.3°F24.6°C 62% 2.6 mph NW4.2 kmh NW 5.0 mph8.0 kmh 29.87 in1011.5 mb 0.00 in0.0 mm 0.00 in0.0 mm 0.13 in3.3 mm
01:41 PM 90.8°F32.7°C 75.0°F23.9°C 60% 1.2 mph N1.9 kmh N 5.0 mph8.0 kmh 29.86 in1011.2 mb 0.00 in0.0 mm 0.00 in0.0 mm 0.13 in3.3 mm
01:46 PM 90.6°F32.6°C 75.6°F24.2°C 61% 1.7 mph ENE2.7 kmh ENE 9.0 mph14.5 kmh 29.85 in1010.8 mb 0.00 in0.0 mm 0.00 in0.0 mm 0.13 in3.3 mm
01:51 PM 90.3°F32.4°C 75.5°F24.2°C 62% 4.0 mph E6.4 kmh E 9.0 mph14.5 kmh 29.85 in1010.8 mb 0.00 in0.0 mm 0.00 in0.0 mm 0.13 in3.3 mm
01:56 PM 90.9°F32.7°C 75.4°F24.1°C 60% 2.5 mph NNE4.0 kmh NNE 9.0 mph14.5 kmh 29.84 in1010.5 mb 0.00 in0.0 mm 0.00 in0.0 mm 0.13 in3.3 mm
02:01 PM 91.6°F33.1°C 75.5°F24.2°C 59% 2.2 mph N3.5 kmh N 9.0 mph14.5 kmh 29.84 in1010.5 mb 0.00 in0.0 mm 0.00 in0.0 mm 0.13 in3.3 mm
02:06 PM 92.0°F33.3°C 75.1°F23.9°C 58% 1.7 mph N2.7 kmh N 7.0 mph11.3 kmh 29.84 in1010.5 mb 0.00 in0.0 mm 0.00 in0.0 mm 0.13 in3.3 mm
02:11 PM 92.2°F33.4°C 76.1°F24.5°C 59% 1.5 mph NW2.4 kmh NW 7.0 mph11.3 kmh 29.83 in1010.2 mb 0.00 in0.0 mm 0.00 in0.0 mm 0.13 in3.3 mm
02:16 PM 91.7°F33.2°C 74.1°F23.4°C 56% 1.2 mph WNW1.9 kmh WNW 7.0 mph11.3 kmh 29.83 in1010.2 mb 0.00 in0.0 mm 0.00 in0.0 mm 0.13 in3.3 mm
02:21 PM 92.1°F33.4°C 75.5°F24.2°C 58% 1.8 mph N2.9 kmh N 7.0 mph11.3 kmh 29.83 in1010.2 mb 0.00 in0.0 mm 0.00 in0.0 mm 0.13 in3.3 mm
02:26 PM 92.1°F33.4°C 74.4°F23.6°C 56% 1.4 mph NW2.3 kmh NW 7.0 mph11.3 kmh 29.83 in1010.2 mb 0.00 in0.0 mm 0.00 in0.0 mm 0.13 in3.3 mm
02:31 PM 91.8°F33.2°C 74.1°F23.4°C 56% 3.7 mph NNE6.0 kmh NNE 7.0 mph11.3 kmh 29.83 in1010.2 mb 0.00 in0.0 mm 0.00 in0.0 mm 0.13 in3.3 mm
02:36 PM 92.1°F33.4°C 75.5°F24.2°C 58% 2.3 mph NE3.7 kmh NE 7.0 mph11.3 kmh 29.83 in1010.2 mb 0.00 in0.0 mm 0.00 in0.0 mm 0.13 in3.3 mm
02:41 PM 92.0°F33.3°C 74.1°F23.4°C 56% 2.3 mph N3.7 kmh N 7.0 mph11.3 kmh 29.83 in1010.2 mb 0.00 in0.0 mm 0.00 in0.0 mm 0.13 in3.3 mm
02:46 PM 92.5°F33.6°C 74.3°F23.5°C 55% 1.8 mph NNW2.9 kmh NNW 7.0 mph11.3 kmh 29.83 in1010.2 mb 0.00 in0.0 mm 0.00 in0.0 mm 0.13 in3.3 mm
02:51 PM 92.5°F33.6°C 74.8°F23.8°C 56% 1.2 mph NW1.9 kmh NW 7.0 mph11.3 kmh 29.83 in1010.2 mb 0.00 in0.0 mm 0.00 in0.0 mm 0.13 in3.3 mm
02:56 PM 92.2°F33.4°C 74.5°F23.6°C 56% 3.9 mph NNE6.3 kmh NNE 8.0 mph12.9 kmh 29.83 in1010.2 mb 0.00 in0.0 mm 0.00 in0.0 mm 0.13 in3.3 mm
03:01 PM 92.2°F33.4°C 74.8°F23.8°C 57% 1.4 mph N2.3 kmh N 8.0 mph12.9 kmh 29.83 in1010.2 mb 0.00 in0.0 mm 0.00 in0.0 mm 0.13 in3.3 mm
03:06 PM 92.5°F33.6°C 74.0°F23.3°C 55% 1.6 mph NE2.6 kmh NE 8.0 mph12.9 kmh 29.83 in1010.2 mb 0.00 in0.0 mm 0.00 in0.0 mm 0.13 in3.3 mm
03:11 PM 92.6°F33.7°C 73.8°F23.2°C 54% 2.4 mph NW3.9 kmh NW 8.0 mph12.9 kmh 29.82 in1009.8 mb 0.00 in0.0 mm 0.00 in0.0 mm 0.13 in3.3 mm
03:16 PM 93.0°F33.9°C 74.7°F23.7°C 55% 1.5 mph N2.4 kmh N 5.0 mph8.0 kmh 29.82 in1009.8 mb 0.00 in0.0 mm 0.00 in0.0 mm 0.13 in3.3 mm
03:21 PM 93.0°F33.9°C 74.2°F23.4°C 54% 2.7 mph N4.3 kmh N 7.0 mph11.3 kmh 29.82 in1009.8 mb 0.00 in0.0 mm 0.00 in0.0 mm 0.13 in3.3 mm
03:26 PM 92.9°F33.8°C 73.5°F23.1°C 53% 3.6 mph NNE5.8 kmh NNE 8.0 mph12.9 kmh 29.83 in1010.2 mb 0.00 in0.0 mm 0.00 in0.0 mm 0.13 in3.3 mm
03:31 PM 93.1°F33.9°C 73.7°F23.2°C 53% 2.2 mph NNE3.5 kmh NNE 8.0 mph12.9 kmh 29.83 in1010.2 mb 0.00 in0.0 mm 0.00 in0.0 mm 0.13 in3.3 mm
03:36 PM 93.5°F34.2°C 74.1°F23.4°C 53% 2.3 mph NNW3.7 kmh NNW 8.0 mph12.9 kmh 29.83 in1010.2 mb 0.00 in0.0 mm 0.00 in0.0 mm 0.13 in3.3 mm
03:41 PM 93.3°F34.1°C 73.3°F22.9°C 52% 2.7 mph N4.3 kmh N 8.0 mph12.9 kmh 29.83 in1010.2 mb 0.00 in0.0 mm 0.00 in0.0 mm 0.13 in3.3 mm
03:46 PM 93.2°F34.0°C 73.2°F22.9°C 52% 1.9 mph NNE3.1 kmh NNE 11.0 mph17.7 kmh 29.83 in1010.2 mb 0.00 in0.0 mm 0.00 in0.0 mm 0.13 in3.3 mm
03:51 PM 93.6°F34.2°C 74.1°F23.4°C 53% 1.2 mph E1.9 kmh E 11.0 mph17.7 kmh 29.83 in1010.2 mb 0.00 in0.0 mm 0.00 in0.0 mm 0.13 in3.3 mm
03:56 PM 93.8°F34.3°C 73.2°F22.9°C 51% 1.4 mph W2.3 kmh W 11.0 mph17.7 kmh 29.83 in1010.2 mb 0.00 in0.0 mm 0.00 in0.0 mm 0.13 in3.3 mm
04:01 PM 93.9°F34.4°C 73.2°F22.9°C 51% 1.5 mph W2.4 kmh W 11.0 mph17.7 kmh 29.83 in1010.2 mb 0.00 in0.0 mm 0.00 in0.0 mm 0.13 in3.3 mm
04:06 PM 94.1°F34.5°C 73.2°F22.9°C 51% 1.0 mph SE1.6 kmh SE 4.0 mph6.4 kmh 29.83 in1010.2 mb 0.00 in0.0 mm 0.00 in0.0 mm 0.13 in3.3 mm
04:11 PM 94.2°F34.6°C 74.1°F23.4°C 52% 1.6 mph WNW2.6 kmh WNW 4.0 mph6.4 kmh 29.83 in1010.2 mb 0.00 in0.0 mm 0.00 in0.0 mm 0.13 in3.3 mm
04:16 PM 95.2°F35.1°C 73.2°F22.9°C 49% 1.8 mph WSW2.9 kmh WSW 4.0 mph6.4 kmh 29.83 in1010.2 mb 0.00 in0.0 mm 0.00 in0.0 mm 0.13 in3.3 mm
04:21 PM 95.2°F35.1°C 72.6°F22.6°C 48% 1.1 mph SW1.8 kmh SW 4.0 mph6.4 kmh 29.83 in1010.2 mb 0.00 in0.0 mm 0.00 in0.0 mm 0.13 in3.3 mm
04:26 PM 95.1°F35.1°C 73.1°F22.8°C 49% 1.6 mph SSW2.6 kmh SSW 4.0 mph6.4 kmh 29.83 in1010.2 mb 0.00 in0.0 mm 0.00 in0.0 mm 0.13 in3.3 mm
04:31 PM 95.0°F35.0°C 73.0°F22.8°C 49% 2.7 mph WSW4.3 kmh WSW 5.0 mph8.0 kmh 29.83 in1010.2 mb 0.00 in0.0 mm 0.00 in0.0 mm 0.13 in3.3 mm
04:36 PM 94.7°F34.8°C 72.1°F22.3°C 48% 3.6 mph W5.8 kmh W 6.0 mph9.7 kmh 29.83 in1010.2 mb 0.00 in0.0 mm 0.00 in0.0 mm 0.13 in3.3 mm
04:41 PM 94.1°F34.5°C 72.8°F22.7°C 50% 1.6 mph WSW2.6 kmh WSW 7.0 mph11.3 kmh 29.83 in1010.2 mb 0.00 in0.0 mm 0.00 in0.0 mm 0.13 in3.3 mm
04:46 PM 94.2°F34.6°C 72.9°F22.7°C 50% 3.1 mph WNW5.0 kmh WNW 7.0 mph11.3 kmh 29.83 in1010.2 mb 0.00 in0.0 mm 0.00 in0.0 mm 0.13 in3.3 mm
04:51 PM 93.7°F34.3°C 72.3°F22.4°C 50% 1.1 mph W1.8 kmh W 7.0 mph11.3 kmh 29.83 in1010.2 mb 0.00 in0.0 mm 0.00 in0.0 mm 0.13 in3.3 mm
04:56 PM 93.6°F34.2°C 73.0°F22.8°C 51% 1.0 mph WSW1.6 kmh WSW 7.0 mph11.3 kmh 29.83 in1010.2 mb 0.00 in0.0 mm 0.00 in0.0 mm 0.13 in3.3 mm
05:01 PM 93.1°F33.9°C 73.1°F22.8°C 52% 1.5 mph WSW2.4 kmh WSW 5.0 mph8.0 kmh 29.83 in1010.2 mb 0.00 in0.0 mm 0.00 in0.0 mm 0.13 in3.3 mm
05:06 PM 92.9°F33.8°C 72.9°F22.7°C 52% 1.0 mph SW1.6 kmh SW 4.0 mph6.4 kmh 29.83 in1010.2 mb 0.00 in0.0 mm 0.00 in0.0 mm 0.13 in3.3 mm
05:11 PM 92.8°F33.8°C 72.2°F22.3°C 51% Calm Calm 4.0 mph6.4 kmh 29.83 in1010.2 mb 0.00 in0.0 mm 0.00 in0.0 mm 0.13 in3.3 mm
05:16 PM 93.1°F33.9°C 73.1°F22.8°C 52% Calm Calm 4.0 mph6.4 kmh 29.83 in1010.2 mb 0.00 in0.0 mm 0.00 in0.0 mm 0.13 in3.3 mm
05:21 PM 92.5°F33.6°C 75.3°F24.1°C 57% 4.0 mph SW6.4 kmh SW 11.0 mph17.7 kmh 29.83 in1010.2 mb 0.00 in0.0 mm 0.00 in0.0 mm 0.13 in3.3 mm
05:26 PM 91.0°F32.8°C 76.0°F24.4°C 61% 1.9 mph SW3.1 kmh SW 11.0 mph17.7 kmh 29.83 in1010.2 mb 0.00 in0.0 mm 0.00 in0.0 mm 0.13 in3.3 mm
05:31 PM 91.0°F32.8°C 77.0°F25.0°C 63% 1.7 mph S2.7 kmh S 11.0 mph17.7 kmh 29.82 in1009.8 mb 0.00 in0.0 mm 0.00 in0.0 mm 0.13 in3.3 mm
05:36 PM 91.1°F32.8°C 76.7°F24.8°C 63% 2.7 mph S4.3 kmh S 11.0 mph17.7 kmh 29.82 in1009.8 mb 0.00 in0.0 mm 0.00 in0.0 mm 0.13 in3.3 mm
05:40 PM 91.1°F32.8°C 77.2°F25.1°C 64% 2.4 mph SW3.9 kmh SW 7.0 mph11.3 kmh 29.83 in1010.2 mb 0.00 in0.0 mm 0.00 in0.0 mm 0.13 in3.3 mm
05:45 PM 91.0°F32.8°C 77.0°F25.0°C 63% 3.7 mph SW6.0 kmh SW 7.0 mph11.3 kmh 29.83 in1010.2 mb 0.00 in0.0 mm 0.00 in0.0 mm 0.13 in3.3 mm
05:50 PM 90.7°F32.6°C 77.6°F25.3°C 65% 2.1 mph S3.4 kmh S 7.0 mph11.3 kmh 29.83 in1010.2 mb 0.00 in0.0 mm 0.00 in0.0 mm 0.13 in3.3 mm
05:55 PM 90.1°F32.3°C 77.1°F25.1°C 65% 4.7 mph SW7.6 kmh SW 15.0 mph24.1 kmh 29.83 in1010.2 mb 0.00 in0.0 mm 0.00 in0.0 mm 0.13 in3.3 mm
06:00 PM 90.1°F32.3°C 77.5°F25.3°C 66% 2.0 mph S3.2 kmh S 15.0 mph24.1 kmh 29.83 in1010.2 mb 0.00 in0.0 mm 0.00 in0.0 mm 0.13 in3.3 mm
06:05 PM 89.8°F32.1°C 76.9°F24.9°C 66% 1.5 mph SSW2.4 kmh SSW 15.0 mph24.1 kmh 29.84 in1010.5 mb 0.00 in0.0 mm 0.00 in0.0 mm 0.13 in3.3 mm
06:10 PM 89.3°F31.8°C 77.2°F25.1°C 67% 2.1 mph SW3.4 kmh SW 15.0 mph24.1 kmh 29.84 in1010.5 mb 0.00 in0.0 mm 0.00 in0.0 mm 0.13 in3.3 mm
06:15 PM 88.9°F31.6°C 77.3°F25.2°C 68% 2.6 mph SW4.2 kmh SW 7.0 mph11.3 kmh 29.84 in1010.5 mb 0.00 in0.0 mm 0.00 in0.0 mm 0.13 in3.3 mm
06:20 PM 88.5°F31.4°C 77.3°F25.2°C 69% 3.1 mph SSW5.0 kmh SSW 7.0 mph11.3 kmh 29.84 in1010.5 mb 0.00 in0.0 mm 0.00 in0.0 mm 0.13 in3.3 mm
06:25 PM 88.1°F31.2°C 77.3°F25.2°C 70% 2.9 mph SW4.7 kmh SW 7.0 mph11.3 kmh 29.84 in1010.5 mb 0.00 in0.0 mm 0.00 in0.0 mm 0.13 in3.3 mm
06:30 PM 87.7°F30.9°C 76.7°F24.8°C 70% 1.7 mph SW2.7 kmh SW 8.0 mph12.9 kmh 29.84 in1010.5 mb 0.00 in0.0 mm 0.00 in0.0 mm 0.13 in3.3 mm
06:35 PM 87.5°F30.8°C 76.8°F24.9°C 70% 2.1 mph SW3.4 kmh SW 8.0 mph12.9 kmh 29.84 in1010.5 mb 0.00 in0.0 mm 0.00 in0.0 mm 0.13 in3.3 mm
06:40 PM 87.4°F30.8°C 76.4°F24.7°C 70% 2.7 mph SW4.3 kmh SW 8.0 mph12.9 kmh 29.84 in1010.5 mb 0.00 in0.0 mm 0.00 in0.0 mm 0.13 in3.3 mm
06:45 PM 87.3°F30.7°C 76.6°F24.8°C 70% 2.3 mph SW3.7 kmh SW 8.0 mph12.9 kmh 29.85 in1010.8 mb 0.00 in0.0 mm 0.00 in0.0 mm 0.13 in3.3 mm
06:50 PM 87.0°F30.6°C 76.5°F24.7°C 71% 1.7 mph SW2.7 kmh SW 7.0 mph11.3 kmh 29.85 in1010.8 mb 0.00 in0.0 mm 0.00 in0.0 mm 0.13 in3.3 mm
06:55 PM 86.8°F30.4°C 76.5°F24.7°C 71% 1.7 mph SW2.7 kmh SW 7.0 mph11.3 kmh 29.85 in1010.8 mb 0.00 in0.0 mm 0.00 in0.0 mm 0.13 in3.3 mm
07:00 PM 86.5°F30.3°C 77.0°F25.0°C 73% Calm Calm 6.0 mph9.7 kmh 29.85 in1010.8 mb 0.00 in0.0 mm 0.00 in0.0 mm 0.13 in3.3 mm
07:05 PM 86.2°F30.1°C 76.1°F24.5°C 72% 2.9 mph NNE4.7 kmh NNE 6.0 mph9.7 kmh 29.86 in1011.2 mb 0.00 in0.0 mm 0.00 in0.0 mm 0.13 in3.3 mm
07:10 PM 85.4°F29.7°C 75.6°F24.2°C 72% 4.0 mph NE6.4 kmh NE 9.0 mph14.5 kmh 29.86 in1011.2 mb 0.00 in0.0 mm 0.00 in0.0 mm 0.13 in3.3 mm
07:15 PM 84.3°F29.1°C 74.5°F23.6°C 72% 7.4 mph NE11.9 kmh NE 13.0 mph20.9 kmh 29.86 in1011.2 mb 0.00 in0.0 mm 0.00 in0.0 mm 0.13 in3.3 mm
07:20 PM 83.2°F28.4°C 73.5°F23.1°C 72% 7.9 mph NE12.7 kmh NE 19.0 mph30.6 kmh 29.87 in1011.5 mb 0.00 in0.0 mm 0.00 in0.0 mm 0.13 in3.3 mm
07:25 PM 82.4°F28.0°C 73.5°F23.1°C 74% 11.3 mph NE18.2 kmh NE 19.0 mph30.6 kmh 29.88 in1011.9 mb 0.00 in0.0 mm 0.00 in0.0 mm 0.13 in3.3 mm
07:30 PM 80.9°F27.2°C 73.4°F23.0°C 78% 8.4 mph NE13.5 kmh NE 19.0 mph30.6 kmh 29.88 in1011.9 mb 0.00 in0.0 mm 0.00 in0.0 mm 0.13 in3.3 mm
07:35 PM 80.2°F26.8°C 73.6°F23.1°C 80% 3.0 mph ENE4.8 kmh ENE 19.0 mph30.6 kmh 29.89 in1012.2 mb 0.00 in0.0 mm 0.00 in0.0 mm 0.13 in3.3 mm
07:40 PM 79.6°F26.4°C 73.4°F23.0°C 81% 9.1 mph NE14.6 kmh NE 19.0 mph30.6 kmh 29.89 in1012.2 mb 0.00 in0.0 mm 0.00 in0.0 mm 0.13 in3.3 mm
07:45 PM 79.1°F26.2°C 73.6°F23.1°C 83% 6.2 mph NE10.0 kmh NE 19.0 mph30.6 kmh 29.89 in1012.2 mb 0.00 in0.0 mm 0.00 in0.0 mm 0.13 in3.3 mm
07:50 PM 78.3°F25.7°C 72.8°F22.7°C 83% 11.0 mph NE17.7 kmh NE 18.0 mph29.0 kmh 29.90 in1012.5 mb 0.00 in0.0 mm 0.00 in0.0 mm 0.13 in3.3 mm
07:55 PM 77.5°F25.3°C 73.0°F22.8°C 86% 6.9 mph NE11.1 kmh NE 18.0 mph29.0 kmh 29.92 in1013.2 mb 0.01 in0.3 mm 0.12 in3.0 mm 0.14 in3.6 mm
08:00 PM 76.4°F24.7°C 72.6°F22.6°C 88% 7.3 mph NE11.7 kmh NE 18.0 mph29.0 kmh 29.92 in1013.2 mb 0.02 in0.5 mm 0.01 in0.3 mm 0.15 in3.8 mm
08:05 PM 75.6°F24.2°C 72.4°F22.4°C 90% 3.7 mph E6.0 kmh E 18.0 mph29.0 kmh 29.92 in1013.2 mb 0.05 in1.3 mm 0.36 in9.1 mm 0.18 in4.6 mm
08:10 PM 75.0°F23.9°C 72.5°F22.5°C 92% 2.6 mph NE4.2 kmh NE 17.0 mph27.4 kmh 29.92 in1013.2 mb 0.07 in1.8 mm 0.24 in6.1 mm 0.20 in5.1 mm
08:15 PM 74.7°F23.7°C 72.5°F22.5°C 93% 2.6 mph E4.2 kmh E 17.0 mph27.4 kmh 29.91 in1012.9 mb 0.19 in4.8 mm 1.44 in36.6 mm 0.32 in8.1 mm
08:20 PM 74.4°F23.6°C 72.5°F22.5°C 94% 4.3 mph SE6.9 kmh SE 17.0 mph27.4 kmh 29.90 in1012.5 mb 0.27 in6.9 mm 0.96 in24.4 mm 0.40 in10.2 mm
08:25 PM 74.1°F23.4°C 72.2°F22.3°C 94% 4.9 mph SSE7.9 kmh SSE 12.0 mph19.3 kmh 29.91 in1012.9 mb 0.27 in6.9 mm 0.00 in0.0 mm 0.40 in10.2 mm
08:30 PM 74.1°F23.4°C 72.5°F22.5°C 95% 3.2 mph SSE5.1 kmh SSE 12.0 mph19.3 kmh 29.91 in1012.9 mb 0.27 in6.9 mm 0.00 in0.0 mm 0.40 in10.2 mm
08:35 PM 73.9°F23.3°C 72.3°F22.4°C 95% 3.4 mph SE5.5 kmh SE 12.0 mph19.3 kmh 29.91 in1012.9 mb 0.27 in6.9 mm 0.00 in0.0 mm 0.40 in10.2 mm
08:40 PM 73.8°F23.2°C 72.2°F22.3°C 95% 2.9 mph ESE4.7 kmh ESE 9.0 mph14.5 kmh 29.91 in1012.9 mb 0.27 in6.9 mm 0.00 in0.0 mm 0.40 in10.2 mm
08:45 PM 73.9°F23.3°C 72.0°F22.2°C 94% 2.1 mph SE3.4 kmh SE 9.0 mph14.5 kmh 29.92 in1013.2 mb 0.27 in6.9 mm 0.00 in0.0 mm 0.40 in10.2 mm
08:50 PM 74.0°F23.3°C 72.1°F22.3°C 94% 1.0 mph SE1.6 kmh SE 9.0 mph14.5 kmh 29.92 in1013.2 mb 0.27 in6.9 mm 0.00 in0.0 mm 0.40 in10.2 mm
08:55 PM 74.1°F23.4°C 72.2°F22.3°C 94% Calm Calm 8.0 mph12.9 kmh 29.92 in1013.2 mb 0.26 in6.6 mm 0.00 in0.0 mm 0.40 in10.2 mm
09:00 PM 74.0°F23.3°C 72.1°F22.3°C 94% 1.0 mph SW1.6 kmh SW 6.0 mph9.7 kmh 29.93 in1013.5 mb 0.24 in6.1 mm 0.00 in0.0 mm 0.40 in10.2 mm
09:05 PM 74.1°F23.4°C 72.2°F22.3°C 94% 1.5 mph NW2.4 kmh NW 4.0 mph6.4 kmh 29.94 in1013.9 mb 0.22 in5.6 mm 0.00 in0.0 mm 0.40 in10.2 mm
09:10 PM 74.2°F23.4°C 72.6°F22.6°C 95% Calm Calm 3.0 mph4.8 kmh 29.94 in1013.9 mb 0.20 in5.1 mm 0.00 in0.0 mm 0.40 in10.2 mm
09:15 PM 74.3°F23.5°C 72.4°F22.4°C 94% Calm Calm 3.0 mph4.8 kmh 29.93 in1013.5 mb 0.08 in2.0 mm 0.00 in0.0 mm 0.40 in10.2 mm
09:20 PM 74.3°F23.5°C 72.4°F22.4°C 94% Calm Calm 3.0 mph4.8 kmh 29.93 in1013.5 mb 0.00 in0.0 mm 0.00 in0.0 mm 0.40 in10.2 mm
09:25 PM 74.2°F23.4°C 72.3°F22.4°C 94% 1.5 mph SW2.4 kmh SW 3.0 mph4.8 kmh 29.92 in1013.2 mb 0.00 in0.0 mm 0.00 in0.0 mm 0.40 in10.2 mm
09:30 PM 74.1°F23.4°C 72.2°F22.3°C 94% 1.2 mph SW1.9 kmh SW 3.0 mph4.8 kmh 29.92 in1013.2 mb 0.00 in0.0 mm 0.00 in0.0 mm 0.40 in10.2 mm
09:35 PM 74.2°F23.4°C 72.6°F22.6°C 95% Calm Calm 3.0 mph4.8 kmh 29.92 in1013.2 mb 0.00 in0.0 mm 0.00 in0.0 mm 0.40 in10.2 mm
09:40 PM 74.2°F23.4°C 72.7°F22.6°C 95% Calm Calm 3.0 mph4.8 kmh 29.92 in1013.2 mb 0.00 in0.0 mm 0.00 in0.0 mm 0.40 in10.2 mm
09:45 PM 74.2°F23.4°C 72.6°F22.6°C 95% Calm Calm 2.0 mph3.2 kmh 29.92 in1013.2 mb 0.00 in0.0 mm 0.00 in0.0 mm 0.40 in10.2 mm
09:50 PM 74.2°F23.4°C 72.6°F22.6°C 95% Calm Calm 1.0 mph1.6 kmh 29.92 in1013.2 mb 0.00 in0.0 mm 0.00 in0.0 mm 0.40 in10.2 mm
09:55 PM 74.1°F23.4°C 72.5°F22.5°C 95% 1.0 mph SW1.6 kmh SW 1.0 mph1.6 kmh 29.92 in1013.2 mb 0.00 in0.0 mm 0.00 in0.0 mm 0.40 in10.2 mm
10:00 PM 74.2°F23.4°C 72.6°F22.6°C 95% 1.0 mph WSW1.6 kmh WSW 1.0 mph1.6 kmh 29.92 in1013.2 mb 0.00 in0.0 mm 0.00 in0.0 mm 0.40 in10.2 mm
10:05 PM 74.3°F23.5°C 72.7°F22.6°C 95% 1.7 mph WSW2.7 kmh WSW 3.0 mph4.8 kmh 29.92 in1013.2 mb 0.00 in0.0 mm 0.00 in0.0 mm 0.40 in10.2 mm
10:10 PM 74.4°F23.6°C 72.8°F22.7°C 95% 1.5 mph WSW2.4 kmh WSW 4.0 mph6.4 kmh 29.92 in1013.2 mb 0.00 in0.0 mm 0.00 in0.0 mm 0.40 in10.2 mm
10:16 PM 74.5°F23.6°C 72.9°F22.7°C 95% 1.4 mph WSW2.3 kmh WSW 4.0 mph6.4 kmh 29.92 in1013.2 mb 0.00 in0.0 mm 0.00 in0.0 mm 0.40 in10.2 mm
10:20 PM 74.5°F23.6°C 72.9°F22.7°C 95% 1.9 mph WSW3.1 kmh WSW 4.0 mph6.4 kmh 29.92 in1013.2 mb 0.00 in0.0 mm 0.00 in0.0 mm 0.40 in10.2 mm
10:25 PM 74.5°F23.6°C 72.6°F22.6°C 94% 1.5 mph W2.4 kmh W 4.0 mph6.4 kmh 29.92 in1013.2 mb 0.00 in0.0 mm 0.00 in0.0 mm 0.40 in10.2 mm
10:30 PM 74.5°F23.6°C 72.6°F22.6°C 94% 1.0 mph WSW1.6 kmh WSW 4.0 mph6.4 kmh 29.92 in1013.2 mb 0.00 in0.0 mm 0.00 in0.0 mm 0.40 in10.2 mm
10:35 PM 74.6°F23.7°C 72.8°F22.7°C 94% 1.0 mph SW1.6 kmh SW 4.0 mph6.4 kmh 29.93 in1013.5 mb 0.00 in0.0 mm 0.00 in0.0 mm 0.40 in10.2 mm
10:41 PM 74.6°F23.7°C 72.8°F22.7°C 94% 1.1 mph SW1.8 kmh SW 4.0 mph6.4 kmh 29.93 in1013.5 mb 0.00 in0.0 mm 0.00 in0.0 mm 0.40 in10.2 mm
10:45 PM 74.5°F23.6°C 72.6°F22.6°C 94% 1.3 mph SSW2.1 kmh SSW 3.0 mph4.8 kmh 29.93 in1013.5 mb 0.00 in0.0 mm 0.00 in0.0 mm 0.40 in10.2 mm
10:50 PM 74.2°F23.4°C 72.6°F22.6°C 95% 1.2 mph SSE1.9 kmh SSE 5.0 mph8.0 kmh 29.93 in1013.5 mb 0.00 in0.0 mm 0.00 in0.0 mm 0.40 in10.2 mm
10:56 PM 74.1°F23.4°C 72.5°F22.5°C 95% 1.3 mph SE2.1 kmh SE 5.0 mph8.0 kmh 29.93 in1013.5 mb 0.00 in0.0 mm 0.00 in0.0 mm 0.40 in10.2 mm
11:01 PM 74.0°F23.3°C 72.4°F22.4°C 95% Calm Calm 5.0 mph8.0 kmh 29.93 in1013.5 mb 0.00 in0.0 mm 0.00 in0.0 mm 0.40 in10.2 mm
11:06 PM 73.9°F23.3°C 72.7°F22.6°C 96% 1.0 mph SE1.6 kmh SE 5.0 mph8.0 kmh 29.93 in1013.5 mb 0.00 in0.0 mm 0.00 in0.0 mm 0.38 in9.7 mm
11:11 PM 73.9°F23.3°C 72.7°F22.6°C 96% 1.0 mph SE1.6 kmh SE 2.0 mph3.2 kmh 29.94 in1013.9 mb 0.00 in0.0 mm 0.00 in0.0 mm 0.38 in9.7 mm
11:16 PM 73.8°F23.2°C 72.6°F22.6°C 96% 1.1 mph SE1.8 kmh SE 2.0 mph3.2 kmh 29.93 in1013.5 mb 0.00 in0.0 mm 0.00 in0.0 mm 0.38 in9.7 mm
11:21 PM 73.7°F23.2°C 72.5°F22.5°C 96% Calm Calm 2.0 mph3.2 kmh 29.93 in1013.5 mb 0.00 in0.0 mm 0.00 in0.0 mm 0.38 in9.7 mm
11:26 PM 73.7°F23.2°C 72.5°F22.5°C 96% 1.0 mph SE1.6 kmh SE 2.0 mph3.2 kmh 29.94 in1013.9 mb 0.00 in0.0 mm 0.00 in0.0 mm 0.38 in9.7 mm
11:31 PM 73.7°F23.2°C 72.5°F22.5°C 96% Calm Calm 2.0 mph3.2 kmh 29.93 in1013.5 mb 0.00 in0.0 mm 0.00 in0.0 mm 0.38 in9.7 mm
11:36 PM 73.7°F23.2°C 72.5°F22.5°C 96% Calm Calm 2.0 mph3.2 kmh 29.93 in1013.5 mb 0.00 in0.0 mm 0.00 in0.0 mm 0.38 in9.7 mm
11:39 PM 73.6°F23.1°C 72.4°F22.4°C 96% Calm Calm 1.0 mph1.6 kmh 29.93 in1013.5 mb 0.00 in0.0 mm 0.00 in0.0 mm 0.38 in9.7 mm
11:44 PM 73.6°F23.1°C 72.4°F22.4°C 96% 1.0 mph SW1.6 kmh SW 1.0 mph1.6 kmh 29.93 in1013.5 mb 0.00 in0.0 mm 0.00 in0.0 mm 0.38 in9.7 mm
11:49 PM 73.5°F23.1°C 72.3°F22.4°C 96% Calm Calm 1.0 mph1.6 kmh 29.93 in1013.5 mb 0.00 in0.0 mm 0.00 in0.0 mm 0.38 in9.7 mm
11:54 PM 73.6°F23.1°C 72.7°F22.6°C 97% Calm Calm 1.0 mph1.6 kmh 29.92 in1013.2 mb 0.00 in0.0 mm 0.00 in0.0 mm 0.38 in9.7 mm